createdAt,value
2024-04-11T00:11:21.996Z,27.21
2024-04-11T00:26:46.917Z,27.48
2024-04-11T00:42:11.918Z,27.80
2024-04-11T00:57:36.829Z,28.29
2024-04-11T01:13:01.788Z,28.34
2024-04-11T01:28:26.730Z,28.52
2024-04-11T01:43:51.812Z,28.77
2024-04-11T01:59:16.806Z,28.81
2024-04-11T02:14:41.856Z,28.96
2024-04-11T02:30:06.982Z,28.99
2024-04-11T02:45:31.760Z,29.07
2024-04-11T03:00:56.776Z,29.24
2024-04-11T03:16:21.766Z,29.43
2024-04-11T03:31:46.753Z,29.17
2024-04-11T03:47:11.789Z,29.22
2024-04-11T04:02:36.832Z,29.34
2024-04-11T04:18:01.782Z,29.32
2024-04-11T04:33:26.765Z,29.41
2024-04-11T04:48:51.730Z,29.35
2024-04-11T05:04:17.728Z,29.48
2024-04-11T05:19:41.785Z,29.73
2024-04-11T05:35:06.719Z,29.71
2024-04-11T05:50:31.715Z,29.62
2024-04-11T06:05:56.643Z,29.48
2024-04-11T06:21:21.645Z,29.59
2024-04-11T06:36:46.628Z,29.48
2024-04-11T06:52:11.735Z,30.02
2024-04-11T07:07:36.593Z,30.02
2024-04-11T07:23:01.622Z,30.33
2024-04-11T07:38:26.638Z,30.66
2024-04-11T07:53:51.635Z,30.17
2024-04-11T08:09:16.580Z,29.76
2024-04-11T08:24:41.613Z,29.50
2024-04-11T08:40:06.582Z,28.87
2024-04-11T08:55:31.529Z,28.38
2024-04-11T09:10:56.499Z,28.17
2024-04-11T09:26:21.511Z,27.97
2024-04-11T09:41:46.566Z,27.82
2024-04-11T09:57:11.566Z,27.65
2024-04-11T10:12:36.545Z,27.48
2024-04-11T10:28:01.470Z,27.04
2024-04-11T10:43:26.489Z,27.17
2024-04-11T10:58:52.471Z,27.35
2024-04-11T11:14:17.510Z,27.31
2024-04-11T11:29:42.504Z,27.27
2024-04-11T11:45:07.511Z,27.23
2024-04-11T12:00:32.488Z,27.05
2024-04-11T12:15:57.524Z,27.36
2024-04-11T12:31:22.405Z,27.11
2024-04-11T12:46:47.450Z,27.20
2024-04-11T13:02:12.458Z,27.19
2024-04-11T13:17:37.381Z,27.46
2024-04-11T13:33:02.500Z,27.33
2024-04-11T13:48:27.487Z,27.25
2024-04-11T14:03:52.610Z,27.40
2024-04-11T14:19:17.581Z,27.23
2024-04-11T14:34:42.443Z,27.21
2024-04-11T14:50:07.383Z,27.25
2024-04-11T15:05:32.429Z,27.19
2024-04-11T15:20:57.411Z,27.20
2024-04-11T15:36:22.329Z,27.17
2024-04-11T15:51:47.384Z,27.12
2024-04-11T16:07:12.315Z,27.00
2024-04-11T16:22:37.300Z,26.98
2024-04-11T16:38:02.318Z,26.91
2024-04-11T16:53:27.578Z,27.03
2024-04-11T17:08:52.329Z,26.96
2024-04-11T17:24:17.219Z,28.45
2024-04-11T17:39:42.414Z,28.71
2024-04-11T17:55:07.259Z,28.87
2024-04-11T18:10:32.262Z,29.00
2024-04-11T18:25:57.300Z,29.57
2024-04-11T18:41:22.321Z,29.34
2024-04-11T18:56:47.318Z,29.01
2024-04-11T19:12:12.321Z,29.18
2024-04-11T19:27:37.159Z,29.30
2024-04-11T19:43:03.488Z,29.35
2024-04-11T19:58:28.159Z,29.42
2024-04-11T20:13:53.178Z,29.52
2024-04-11T20:29:18.192Z,29.49
2024-04-11T20:44:43.225Z,29.36
2024-04-11T21:00:08.185Z,29.36
2024-04-11T21:15:33.172Z,29.02
2024-04-11T21:30:58.144Z,28.90
2024-04-11T21:46:23.209Z,29.13
2024-04-11T22:01:49.339Z,28.74
2024-04-11T22:17:14.091Z,28.90
2024-04-11T22:32:39.264Z,28.27
2024-04-11T22:48:04.254Z,28.18
2024-04-11T23:03:29.205Z,28.40
2024-04-11T23:18:54.130Z,28.53
2024-04-11T23:34:19.102Z,28.57
2024-04-11T23:49:44.105Z,28.76
